createdAt,value
2023-05-03T00:00:19.284Z,9.21
2023-05-03T00:02:47.806Z,9.22
2023-05-03T00:05:16.378Z,9.28
2023-05-03T00:07:45.560Z,9.28
2023-05-03T00:10:14.612Z,9.26
2023-05-03T00:12:43.891Z,9.27
2023-05-03T00:15:12.632Z,9.25
2023-05-03T00:17:40.780Z,9.19
2023-05-03T00:20:09.656Z,9.15
2023-05-03T00:22:38.030Z,9.14
2023-05-03T00:25:06.381Z,9.12
2023-05-03T00:27:34.282Z,9.13
2023-05-03T00:30:02.500Z,9.12
2023-05-03T00:32:30.712Z,9.12
2023-05-03T00:34:59.234Z,9.10
2023-05-03T00:37:27.504Z,9.06
2023-05-03T00:39:55.430Z,9.07
2023-05-03T00:42:23.408Z,8.98
2023-05-03T00:44:51.978Z,8.94
2023-05-03T00:47:21.398Z,8.92
2023-05-03T00:49:49.476Z,8.84
2023-05-03T00:52:17.905Z,8.77
2023-05-03T00:54:45.809Z,8.73
2023-05-03T00:57:13.676Z,8.72
2023-05-03T00:59:41.647Z,8.75
2023-05-03T01:02:09.707Z,8.76
2023-05-03T01:04:39.344Z,8.76
2023-05-03T01:07:33.391Z,8.76
2023-05-03T01:10:36.206Z,8.79
2023-05-03T01:13:13.290Z,8.83
2023-05-03T01:15:49.487Z,8.82
2023-05-03T01:18:28.264Z,8.85
2023-05-03T01:20:57.987Z,8.86
2023-05-03T01:23:34.655Z,8.90
2023-05-03T01:26:26.035Z,8.94
2023-05-03T01:28:54.130Z,8.94
2023-05-03T01:31:47.717Z,8.99
2023-05-03T01:34:18.392Z,9.00
2023-05-03T01:36:47.322Z,9.02
2023-05-03T01:39:26.114Z,9.03
2023-05-03T01:41:55.406Z,9.07
2023-05-03T01:44:24.862Z,9.06
2023-05-03T01:46:52.830Z,9.06
2023-05-03T01:49:20.748Z,9.05
2023-05-03T01:51:48.599Z,9.04
2023-05-03T01:54:17.554Z,9.04
2023-05-03T01:56:45.948Z,9.06
2023-05-03T01:59:13.874Z,9.07
2023-05-03T02:01:41.876Z,9.06
2023-05-03T02:04:09.905Z,9.06
2023-05-03T02:06:37.960Z,9.04
2023-05-03T02:09:05.984Z,9.01
2023-05-03T02:11:33.984Z,9.06
2023-05-03T02:14:01.870Z,9.08
2023-05-03T02:16:30.560Z,9.10
2023-05-03T02:19:00.756Z,9.11
2023-05-03T02:21:28.748Z,9.14
2023-05-03T02:23:56.819Z,9.14
2023-05-03T02:26:24.657Z,9.10
2023-05-03T02:28:52.625Z,9.13
2023-05-03T02:31:20.591Z,9.13
2023-05-03T02:33:48.444Z,9.11
2023-05-03T02:36:16.321Z,9.08
2023-05-03T02:38:44.309Z,9.02
2023-05-03T02:41:12.347Z,9.04
2023-05-03T02:43:40.378Z,9.03
2023-05-03T02:46:08.301Z,9.06
2023-05-03T02:48:36.132Z,9.08
2023-05-03T02:51:04.723Z,9.10
2023-05-03T02:53:32.789Z,9.15
2023-05-03T02:56:00.666Z,9.17
2023-05-03T02:58:28.672Z,9.19
2023-05-03T03:00:56.652Z,9.18
2023-05-03T03:03:24.486Z,9.19
2023-05-03T03:05:52.381Z,9.15
2023-05-03T03:08:20.313Z,9.15
2023-05-03T03:10:48.359Z,9.20
2023-05-03T03:13:16.302Z,9.21
2023-05-03T03:15:44.165Z,9.25
2023-05-03T03:18:12.200Z,9.28
2023-05-03T03:20:40.210Z,9.29
2023-05-03T03:23:08.651Z,9.29
2023-05-03T03:25:36.561Z,9.28
2023-05-03T03:28:04.404Z,9.28
2023-05-03T03:30:32.679Z,9.30
2023-05-03T03:33:00.690Z,9.33
2023-05-03T03:35:28.930Z,9.33
2023-05-03T03:37:56.803Z,9.35
2023-05-03T03:40:24.741Z,9.33
2023-05-03T03:42:52.544Z,9.39
2023-05-03T03:45:20.681Z,9.39
2023-05-03T03:47:48.572Z,9.38
2023-05-03T03:50:16.615Z,9.38
2023-05-03T03:52:44.482Z,9.31
2023-05-03T03:55:12.935Z,9.29
2023-05-03T03:57:40.875Z,9.28
2023-05-03T04:00:13.085Z,9.24
2023-05-03T04:02:41.322Z,9.20
2023-05-03T04:05:09.602Z,9.15
2023-05-03T04:07:37.534Z,9.13
2023-05-03T04:10:05.925Z,9.11
2023-05-03T04:12:35.382Z,9.13
2023-05-03T04:15:03.700Z,9.15
2023-05-03T04:17:31.665Z,9.14
2023-05-03T04:19:59.505Z,9.14
2023-05-03T04:22:27.452Z,9.14
2023-05-03T04:24:56.056Z,9.14
2023-05-03T04:27:24.066Z,9.16
2023-05-03T04:29:52.169Z,9.16
2023-05-03T04:32:24.449Z,9.18
2023-05-03T04:34:54.005Z,9.20
2023-05-03T04:37:23.683Z,9.20
2023-05-03T04:39:51.796Z,9.16
2023-05-03T04:42:19.790Z,9.15
2023-05-03T04:44:48.218Z,9.13
2023-05-03T04:47:16.169Z,9.11
2023-05-03T04:49:43.986Z,9.05
2023-05-03T04:52:12.073Z,9.03
2023-05-03T04:54:40.220Z,9.00
2023-05-03T04:57:08.497Z,8.97
2023-05-03T04:59:36.380Z,8.98
2023-05-03T05:02:04.373Z,8.99
2023-05-03T05:04:32.353Z,9.01
2023-05-03T05:07:00.838Z,9.05
2023-05-03T05:09:30.634Z,9.08
2023-05-03T05:11:58.788Z,9.11
2023-05-03T05:14:29.650Z,9.17
2023-05-03T05:16:57.875Z,9.23
2023-05-03T05:19:25.810Z,9.30
2023-05-03T05:21:54.102Z,9.32
2023-05-03T05:24:22.116Z,9.35
2023-05-03T05:26:50.467Z,9.41
2023-05-03T05:29:18.478Z,9.46
2023-05-03T05:31:46.493Z,9.49
2023-05-03T05:34:14.524Z,9.54
2023-05-03T05:36:42.484Z,9.57
2023-05-03T05:39:11.041Z,9.62
2023-05-03T05:41:39.035Z,9.66
2023-05-03T05:44:07.304Z,9.68
2023-05-03T05:46:35.273Z,9.69
2023-05-03T05:49:03.234Z,9.74
2023-05-03T05:51:33.110Z,9.77
2023-05-03T05:54:00.992Z,9.80
2023-05-03T05:56:28.975Z,9.78
2023-05-03T05:58:57.532Z,9.83
2023-05-03T06:01:25.527Z,9.86
2023-05-03T06:03:53.623Z,9.90
2023-05-03T06:06:21.560Z,9.94
2023-05-03T06:08:51.256Z,10.01
2023-05-03T06:11:19.662Z,10.07
2023-05-03T06:13:47.662Z,10.10
2023-05-03T06:16:15.617Z,10.16
2023-05-03T06:18:43.583Z,10.21
2023-05-03T06:21:12.674Z,10.30
2023-05-03T06:23:41.705Z,10.33
2023-05-03T06:26:10.082Z,10.41
2023-05-03T06:28:38.473Z,10.51
2023-05-03T06:31:06.601Z,10.64
2023-05-03T06:33:34.542Z,10.70
2023-05-03T06:36:02.948Z,10.86
2023-05-03T06:38:30.785Z,10.96
2023-05-03T06:40:58.684Z,11.25
2023-05-03T06:43:27.139Z,11.30
2023-05-03T06:45:55.148Z,11.26
2023-05-03T06:48:23.205Z,11.19
2023-05-03T06:50:52.066Z,11.12
2023-05-03T06:53:20.212Z,11.03
2023-05-03T06:55:48.332Z,10.96
2023-05-03T06:58:17.236Z,10.95
2023-05-03T07:00:45.157Z,10.92
2023-05-03T07:03:13.270Z,10.92
2023-05-03T07:05:42.025Z,10.88
2023-05-03T07:08:09.992Z,10.90
2023-05-03T07:10:37.960Z,10.89
2023-05-03T07:13:05.806Z,10.86
2023-05-03T07:15:33.812Z,10.87
2023-05-03T07:18:01.620Z,10.91
2023-05-03T07:20:29.728Z,10.95
2023-05-03T07:22:57.732Z,10.97
2023-05-03T07:25:25.657Z,11.00
2023-05-03T07:27:53.820Z,10.99
2023-05-03T07:30:22.107Z,11.04
2023-05-03T07:32:50.276Z,11.07
2023-05-03T07:35:18.659Z,11.15
2023-05-03T07:37:46.654Z,11.19
2023-05-03T07:40:14.616Z,11.27
2023-05-03T07:42:42.498Z,11.28
2023-05-03T07:45:11.014Z,11.33
2023-05-03T07:47:40.692Z,11.36
2023-05-03T07:50:09.163Z,11.35
2023-05-03T07:52:38.672Z,11.33
2023-05-03T07:55:08.197Z,11.33
2023-05-03T07:57:36.061Z,11.36
2023-05-03T08:00:06.854Z,11.40
2023-05-03T08:02:34.932Z,11.43
2023-05-03T08:05:03.156Z,11.50
2023-05-03T08:07:31.884Z,11.52
2023-05-03T08:10:00.385Z,11.61
2023-05-03T08:12:28.959Z,11.66
2023-05-03T08:14:57.842Z,11.71
2023-05-03T08:17:25.762Z,11.77
2023-05-03T08:19:53.734Z,11.82
2023-05-03T08:22:22.022Z,11.89
2023-05-03T08:24:50.493Z,11.87
2023-05-03T08:27:18.677Z,11.97
2023-05-03T08:29:46.677Z,12.02
2023-05-03T08:32:14.652Z,12.05
2023-05-03T08:34:42.800Z,12.07
2023-05-03T08:37:10.664Z,12.11
2023-05-03T08:39:38.582Z,12.13
2023-05-03T08:42:10.349Z,12.20
2023-05-03T08:44:39.591Z,12.27
2023-05-03T08:47:08.632Z,12.37
2023-05-03T08:49:37.849Z,12.48
2023-05-03T08:52:07.887Z,12.59
2023-05-03T08:54:35.828Z,12.68
2023-05-03T08:57:03.976Z,12.82
2023-05-03T08:59:31.842Z,12.92
2023-05-03T09:01:59.849Z,12.98
2023-05-03T09:04:35.962Z,13.07
2023-05-03T09:07:13.977Z,13.18
2023-05-03T09:09:42.469Z,13.28
2023-05-03T09:12:11.345Z,13.41
2023-05-03T09:14:48.737Z,13.57
2023-05-03T09:17:19.271Z,13.70
2023-05-03T09:19:57.623Z,13.82
2023-05-03T09:22:29.240Z,13.91
2023-05-03T09:24:59.812Z,13.96
2023-05-03T09:27:28.545Z,14.02
2023-05-03T09:29:56.962Z,14.14
2023-05-03T09:32:25.598Z,14.28
2023-05-03T09:35:10.418Z,14.36
2023-05-03T09:37:39.891Z,14.44
2023-05-03T09:40:12.904Z,14.49
2023-05-03T09:42:44.941Z,14.60
2023-05-03T09:45:13.156Z,14.72
2023-05-03T09:48:08.768Z,14.77
2023-05-03T09:50:38.001Z,14.82
2023-05-03T09:53:07.300Z,14.89
2023-05-03T09:55:40.812Z,14.90
2023-05-03T09:58:09.345Z,14.91
2023-05-03T10:00:41.726Z,14.97
2023-05-03T10:03:11.759Z,15.00
2023-05-03T10:05:52.717Z,14.98
2023-05-03T10:08:28.465Z,14.99
2023-05-03T10:10:56.570Z,15.00
2023-05-03T10:13:25.461Z,14.99
2023-05-03T10:16:06.781Z,15.04
2023-05-03T10:18:39.110Z,15.07
2023-05-03T10:21:15.851Z,15.17
2023-05-03T10:24:10.781Z,15.27
2023-05-03T10:26:38.676Z,15.27
2023-05-03T10:29:08.542Z,15.31
2023-05-03T10:31:49.683Z,15.35
2023-05-03T10:34:22.962Z,15.42
2023-05-03T10:36:53.840Z,15.45
2023-05-03T10:39:23.379Z,15.52
2023-05-03T10:42:10.560Z,15.57
2023-05-03T10:44:52.520Z,15.60
2023-05-03T10:47:25.423Z,15.70
2023-05-03T10:50:18.397Z,15.77
2023-05-03T10:52:46.429Z,15.91
2023-05-03T10:55:22.472Z,15.97
2023-05-03T10:57:51.699Z,15.96
2023-05-03T11:00:34.974Z,16.05
2023-05-03T11:03:25.041Z,16.09
2023-05-03T11:05:56.384Z,16.15
2023-05-03T11:08:27.327Z,16.21
2023-05-03T11:11:03.876Z,16.27
2023-05-03T11:13:31.935Z,16.34
2023-05-03T11:15:59.916Z,16.42
2023-05-03T11:18:28.910Z,16.48
2023-05-03T11:20:57.295Z,16.54
2023-05-03T11:23:32.840Z,16.63
2023-05-03T11:26:00.829Z,16.59
2023-05-03T11:28:28.884Z,16.57
2023-05-03T11:30:56.810Z,16.60
2023-05-03T11:33:25.170Z,16.63
2023-05-03T11:35:57.586Z,16.67
2023-05-03T11:38:25.707Z,16.69
2023-05-03T11:40:53.712Z,16.74
2023-05-03T11:43:21.805Z,16.79
2023-05-03T11:45:52.295Z,16.86
2023-05-03T11:48:20.632Z,16.95
2023-05-03T11:50:57.813Z,17.01
2023-05-03T11:53:27.098Z,17.08
2023-05-03T11:55:55.762Z,17.11
2023-05-03T11:58:27.670Z,17.14
2023-05-03T12:00:58.344Z,17.26
2023-05-03T12:03:31.835Z,17.30
2023-05-03T12:06:02.519Z,17.33
2023-05-03T12:08:37.920Z,17.36
2023-05-03T12:11:09.861Z,17.47
2023-05-03T12:13:40.686Z,17.54
2023-05-03T12:16:14.608Z,17.58
2023-05-03T12:19:05.258Z,17.67
2023-05-03T12:22:13.279Z,17.73
2023-05-03T12:24:45.096Z,17.79
2023-05-03T12:27:14.966Z,17.83
2023-05-03T12:29:42.999Z,17.81
2023-05-03T12:32:12.297Z,17.80
2023-05-03T12:34:41.838Z,17.79
2023-05-03T12:37:11.972Z,17.85
2023-05-03T12:39:40.781Z,17.94
2023-05-03T12:42:09.803Z,17.98
2023-05-03T12:44:43.024Z,18.02
2023-05-03T12:47:16.200Z,18.08
2023-05-03T12:49:52.271Z,18.14
2023-05-03T12:52:37.483Z,18.16
2023-05-03T12:55:11.145Z,18.12
2023-05-03T12:57:39.737Z,18.11
2023-05-03T13:00:14.660Z,18.15
2023-05-03T13:05:30.504Z,18.13
2023-05-03T13:08:09.085Z,18.16
2023-05-03T13:10:42.468Z,18.24
2023-05-03T13:13:10.866Z,18.21
2023-05-03T13:15:39.294Z,18.17
2023-05-03T13:18:07.992Z,18.15
2023-05-03T13:20:37.536Z,18.13
2023-05-03T13:23:06.031Z,18.15
2023-05-03T13:25:36.871Z,18.12
2023-05-03T13:28:05.172Z,18.12
2023-05-03T13:30:33.100Z,18.13
2023-05-03T13:33:01.053Z,18.13
2023-05-03T13:35:29.205Z,18.11
2023-05-03T13:37:57.267Z,18.10
2023-05-03T13:40:25.935Z,18.10
2023-05-03T13:42:53.872Z,18.10
2023-05-03T13:45:22.032Z,18.10
2023-05-03T13:48:13.261Z,18.12
2023-05-03T13:50:37.876Z,18.08
2023-05-03T13:53:05.893Z,18.06
2023-05-03T13:55:33.803Z,17.93
2023-05-03T13:58:01.660Z,17.92
2023-05-03T14:00:31.601Z,17.92
2023-05-03T14:03:00.299Z,17.95
2023-05-03T14:05:28.581Z,17.96
2023-05-03T14:07:57.074Z,17.94
2023-05-03T14:10:25.110Z,17.95
2023-05-03T14:12:54.258Z,17.99
2023-05-03T14:15:22.243Z,18.00
2023-05-03T14:17:50.446Z,17.99
2023-05-03T14:20:21.359Z,18.05
2023-05-03T14:22:49.393Z,18.05
2023-05-03T14:25:17.589Z,18.07
2023-05-03T14:27:45.517Z,18.09
2023-05-03T14:30:13.855Z,18.12
2023-05-03T14:32:41.861Z,18.13
2023-05-03T14:35:10.473Z,18.14
2023-05-03T14:37:38.626Z,18.13
2023-05-03T14:40:07.742Z,18.12
2023-05-03T14:42:36.171Z,18.13
2023-05-03T14:45:04.341Z,18.14
2023-05-03T14:47:32.700Z,18.16
2023-05-03T14:50:00.716Z,18.18
2023-05-03T14:52:29.248Z,18.18
2023-05-03T14:54:57.188Z,18.16
2023-05-03T14:57:25.397Z,18.19
2023-05-03T14:59:53.306Z,18.20
2023-05-03T15:02:21.244Z,18.27
2023-05-03T15:04:49.148Z,18.32
2023-05-03T15:07:17.154Z,18.35
2023-05-03T15:09:46.098Z,18.39
2023-05-03T15:12:14.091Z,18.46
2023-05-03T15:14:42.224Z,18.49
2023-05-03T15:17:10.142Z,18.55
2023-05-03T15:19:38.251Z,18.61
2023-05-03T15:22:06.205Z,18.64
2023-05-03T15:24:34.174Z,18.69
2023-05-03T15:27:04.177Z,18.76
2023-05-03T15:29:32.783Z,18.79
2023-05-03T15:32:00.899Z,18.80
2023-05-03T15:34:29.222Z,18.83
2023-05-03T15:36:57.430Z,18.84
2023-05-03T15:39:25.897Z,18.89
2023-05-03T15:41:53.785Z,18.91
2023-05-03T15:44:21.702Z,18.95
2023-05-03T15:46:49.793Z,18.97
2023-05-03T15:49:17.788Z,19.01
2023-05-03T15:51:45.713Z,19.10
2023-05-03T15:54:13.570Z,19.16
2023-05-03T15:56:41.528Z,19.15
2023-05-03T15:59:10.072Z,19.16
2023-05-03T16:01:38.596Z,19.21
2023-05-03T16:04:08.976Z,19.19
2023-05-03T16:06:36.965Z,19.19
2023-05-03T16:09:05.414Z,19.20
2023-05-03T16:11:33.433Z,19.16
2023-05-03T16:14:01.464Z,19.20
2023-05-03T16:16:29.563Z,19.23
2023-05-03T16:18:57.443Z,19.19
2023-05-03T16:21:25.379Z,19.19
2023-05-03T16:23:53.672Z,19.17
2023-05-03T16:26:21.528Z,19.16
2023-05-03T16:28:50.216Z,19.18
2023-05-03T16:31:18.384Z,19.17
2023-05-03T16:33:46.390Z,19.19
2023-05-03T16:36:14.568Z,19.19
2023-05-03T16:38:42.585Z,19.15
2023-05-03T16:41:10.585Z,19.14
2023-05-03T16:43:39.577Z,19.16
2023-05-03T16:46:07.962Z,19.13
2023-05-03T16:48:35.965Z,19.08
2023-05-03T16:51:04.034Z,19.05
2023-05-03T16:53:32.737Z,18.97
2023-05-03T16:56:01.226Z,18.97
2023-05-03T16:58:29.306Z,18.94
2023-05-03T17:00:57.551Z,18.93
2023-05-03T17:03:26.592Z,18.87
2023-05-03T17:05:55.146Z,18.83
2023-05-03T17:08:23.059Z,18.74
2023-05-03T17:10:51.343Z,18.67
2023-05-03T17:13:19.331Z,18.64
2023-05-03T17:15:47.648Z,18.60
2023-05-03T17:18:15.702Z,18.51
2023-05-03T17:20:44.329Z,18.44
2023-05-03T17:23:12.354Z,18.34
2023-05-03T17:25:40.349Z,18.26
2023-05-03T17:28:08.178Z,18.19
2023-05-03T17:30:36.278Z,18.13
2023-05-03T17:33:04.164Z,18.00
2023-05-03T17:35:32.100Z,17.92
2023-05-03T17:38:00.038Z,17.87
2023-05-03T17:40:27.970Z,17.79
2023-05-03T17:42:56.110Z,17.72
2023-05-03T17:45:26.498Z,17.66
2023-05-03T17:47:54.457Z,17.57
2023-05-03T17:50:22.352Z,17.50
2023-05-03T17:52:50.253Z,17.44
2023-05-03T17:55:18.538Z,17.34
2023-05-03T17:57:47.095Z,17.28
2023-05-03T18:00:18.451Z,17.22
2023-05-03T18:02:46.373Z,17.17
2023-05-03T18:05:15.231Z,17.11
2023-05-03T18:07:43.523Z,17.06
2023-05-03T18:10:15.920Z,17.01
2023-05-03T18:12:44.612Z,16.95
2023-05-03T18:15:12.975Z,16.89
2023-05-03T18:17:40.915Z,16.84
2023-05-03T18:20:10.153Z,16.76
2023-05-03T18:22:38.824Z,16.68
2023-05-03T18:25:08.591Z,16.59
2023-05-03T18:27:38.581Z,16.54
2023-05-03T18:30:07.866Z,16.50
2023-05-03T18:32:36.260Z,16.44
2023-05-03T18:35:04.950Z,16.38
2023-05-03T18:37:32.910Z,16.30
2023-05-03T18:40:00.914Z,16.27
2023-05-03T18:42:29.152Z,16.20
2023-05-03T18:44:57.075Z,16.14
2023-05-03T18:47:25.262Z,16.08
2023-05-03T18:49:54.069Z,16.03
2023-05-03T18:52:22.491Z,15.98
2023-05-03T18:54:51.158Z,15.93
2023-05-03T18:57:20.118Z,15.86
2023-05-03T19:00:07.729Z,15.82
2023-05-03T19:02:36.549Z,15.77
2023-05-03T19:05:04.600Z,15.69
2023-05-03T19:07:32.561Z,15.66
2023-05-03T19:10:00.546Z,15.61
2023-05-03T19:12:28.747Z,15.56
2023-05-03T19:14:56.675Z,15.50
2023-05-03T19:17:24.596Z,15.43
2023-05-03T19:19:52.812Z,15.37
2023-05-03T19:22:20.773Z,15.33
2023-05-03T19:24:49.403Z,15.24
2023-05-03T19:27:18.810Z,15.21
2023-05-03T19:29:46.878Z,15.16
2023-05-03T19:32:14.810Z,15.09
2023-05-03T19:34:43.191Z,15.04
2023-05-03T19:37:11.134Z,14.99
2023-05-03T19:39:39.094Z,14.92
2023-05-03T19:42:07.129Z,14.88
2023-05-03T19:44:35.395Z,14.82
2023-05-03T19:47:03.319Z,14.76
2023-05-03T19:49:31.436Z,14.73
2023-05-03T19:51:59.372Z,14.68
2023-05-03T19:54:27.479Z,14.59
2023-05-03T19:56:56.629Z,14.56
2023-05-03T19:59:24.666Z,14.51
2023-05-03T20:01:52.898Z,14.45
2023-05-03T20:04:20.893Z,14.42
2023-05-03T20:06:48.949Z,14.36
2023-05-03T20:09:16.934Z,14.31
2023-05-03T20:11:44.839Z,14.27
2023-05-03T20:14:12.999Z,14.22
2023-05-03T20:16:41.247Z,14.16
2023-05-03T20:19:09.243Z,14.09
2023-05-03T20:21:37.133Z,14.04
2023-05-03T20:24:06.174Z,13.95
2023-05-03T20:26:34.028Z,13.88
2023-05-03T20:29:02.227Z,13.82
2023-05-03T20:31:30.183Z,13.76
2023-05-03T20:33:58.316Z,13.68
2023-05-03T20:36:26.365Z,13.65
2023-05-03T20:38:56.044Z,13.59
2023-05-03T20:41:24.522Z,13.55
2023-05-03T20:43:53.231Z,13.48
2023-05-03T20:46:21.252Z,13.47
2023-05-03T20:48:49.372Z,13.46
2023-05-03T20:51:17.314Z,13.39
2023-05-03T20:53:45.524Z,13.39
2023-05-03T20:56:13.831Z,13.37
2023-05-03T20:58:41.862Z,13.35
2023-05-03T21:01:09.795Z,13.34
2023-05-03T21:03:37.783Z,13.29
2023-05-03T21:06:08.048Z,13.26
2023-05-03T21:08:36.333Z,13.24
2023-05-03T21:11:05.495Z,13.22
2023-05-03T21:13:36.868Z,13.19
2023-05-03T21:16:04.998Z,13.16
2023-05-03T21:18:33.162Z,13.12
2023-05-03T21:21:01.130Z,13.08
2023-05-03T21:23:29.074Z,13.06
2023-05-03T21:25:57.048Z,13.02
2023-05-03T21:28:25.095Z,12.98
2023-05-03T21:30:55.851Z,12.94
2023-05-03T21:33:24.085Z,12.90
2023-05-03T21:35:52.036Z,12.86
2023-05-03T21:38:19.923Z,12.83
2023-05-03T21:40:48.540Z,12.74
2023-05-03T21:43:16.630Z,12.69
2023-05-03T21:45:45.319Z,12.65
2023-05-03T21:48:13.866Z,12.60
2023-05-03T21:50:41.853Z,12.57
2023-05-03T21:53:09.785Z,12.52
2023-05-03T21:55:37.681Z,12.49
2023-05-03T21:58:06.144Z,12.46
2023-05-03T22:00:37.306Z,12.41
2023-05-03T22:03:05.374Z,12.36
2023-05-03T22:05:33.669Z,12.30
2023-05-03T22:08:02.438Z,12.27
2023-05-03T22:10:30.352Z,12.26
2023-05-03T22:12:58.329Z,12.21
2023-05-03T22:15:26.219Z,12.19
2023-05-03T22:17:54.185Z,12.14
2023-05-03T22:20:22.353Z,12.14
2023-05-03T22:22:50.291Z,12.09
2023-05-03T22:25:30.070Z,12.08
2023-05-03T22:27:59.387Z,12.05
2023-05-03T22:30:27.508Z,12.01
2023-05-03T22:32:55.505Z,11.98
2023-05-03T22:35:23.616Z,11.93
2023-05-03T22:37:51.506Z,11.92
2023-05-03T22:40:19.338Z,11.89
2023-05-03T22:42:47.154Z,11.84
2023-05-03T22:45:15.255Z,11.83
2023-05-03T22:47:44.715Z,11.80
2023-05-03T22:50:12.812Z,11.76
2023-05-03T22:52:40.788Z,11.71
2023-05-03T22:55:09.660Z,11.66
2023-05-03T22:57:37.914Z,11.61
2023-05-03T23:00:06.508Z,11.58
2023-05-03T23:02:35.144Z,11.56
2023-05-03T23:05:03.160Z,11.52
2023-05-03T23:07:31.638Z,11.50
2023-05-03T23:10:04.506Z,11.47
2023-05-03T23:12:32.632Z,11.45
2023-05-03T23:15:00.998Z,11.42
2023-05-03T23:17:29.044Z,11.39
2023-05-03T23:19:57.099Z,11.35
2023-05-03T23:22:25.070Z,11.29
2023-05-03T23:24:52.896Z,11.27
2023-05-03T23:27:20.787Z,11.25
2023-05-03T23:29:49.501Z,11.23
2023-05-03T23:32:17.877Z,11.20
2023-05-03T23:34:46.229Z,11.16
2023-05-03T23:37:14.129Z,11.14
2023-05-03T23:39:46.059Z,11.12
2023-05-03T23:42:14.252Z,11.08
2023-05-03T23:44:54.591Z,11.03
2023-05-03T23:47:23.589Z,11.03
2023-05-03T23:49:51.535Z,10.96
2023-05-03T23:52:21.236Z,10.95
2023-05-03T23:54:49.286Z,10.95
2023-05-03T23:57:17.484Z,10.91
2023-05-03T23:59:45.630Z,10.92
